Time;durP1;ratioP1;P1;durP2;ratioP2;P2;SDS_P1;SDS_P2;PMS_P1;PMS_P2;Temp;Humidity;BMP_temperature;BMP_pressure;BME280_temperature;BME280_humidity;BME280_pressure;Samples;Min_cycle;Max_cycle;Signal;HPM_P1;HPM_P2
2021/10/02 00:02:01;;;;;;;2.63;1.67;;;22.80;54.30;;;;;;6295684;22;20379;-82
2021/10/02 00:46:16;;;;;;;3.83;1.37;;;22.80;54.40;;;;;;6267361;22;20383;-85
2021/10/02 00:48:43;;;;;;;1.90;1.20;;;22.80;54.40;;;;;;6290934;22;20389;-85
2021/10/02 00:51:09;;;;;;;3.47;1.60;;;22.80;54.40;;;;;;6264026;22;20373;-84
2021/10/02 00:57:02;;;;;;;2.20;1.73;;;22.80;54.30;;;;;;6294718;22;20348;-85
2021/10/02 00:59:30;;;;;;;2.30;1.77;;;22.80;54.40;;;;;;6266157;22;20474;-84
2021/10/02 01:02:22;;;;;;;1.97;1.57;;;22.80;54.40;;;;;;6267447;22;20415;-85
2021/10/02 01:04:57;;;;;;;1.57;1.30;;;22.80;54.40;;;;;;6114534;23;20381;-85
2021/10/02 01:07:55;;;;;;;2.10;1.50;;;22.80;54.40;;;;;;6140239;23;20383;-83
2021/10/02 01:10:38;;;;;;;2.30;1.40;;;22.80;54.40;;;;;;6116991;23;20381;-83
2021/10/02 01:13:32;;;;;;;2.37;1.23;;;22.80;54.40;;;;;;6093421;23;20481;-83
2021/10/02 01:16:12;;;;;;;2.97;1.77;;;22.80;54.40;;;;;;6141613;23;20403;-83
2021/10/02 01:19:10;;;;;;;1.90;1.70;;;22.80;54.40;;;;;;6116381;23;20384;-83
2021/10/02 01:22:08;;;;;;;1.90;1.37;;;22.80;54.40;;;;;;6116958;23;20385;-83
2021/10/02 01:25:04;;;;;;;2.13;1.40;;;22.80;54.50;;;;;;6142017;23;20855;-83
2021/10/02 01:28:14;;;;;;;2.07;1.80;;;22.80;54.50;;;;;;6118121;23;20369;-82
2021/10/02 01:30:59;;;;;;;1.40;1.20;;;22.80;54.40;;;;;;6059934;23;20371;-82
2021/10/02 01:34:04;;;;;;;1.93;1.50;;;22.80;54.50;;;;;;6116902;23;20420;-82
2021/10/02 01:37:07;;;;;;;1.77;1.57;;;22.80;54.50;;;;;;6142825;23;20373;-82
2021/10/02 01:47:56;;;;;;;1.70;1.40;;;22.80;54.60;;;;;;6296511;22;20375;-82
2021/10/02 01:50:28;;;;;;;1.80;1.70;;;22.80;54.50;;;;;;6296434;22;20375;-82
2021/10/02 01:53:00;;;;;;;1.87;1.50;;;22.80;54.50;;;;;;6269453;22;20416;-82
2021/10/02 01:55:37;;;;;;;1.70;1.33;;;22.80;54.50;;;;;;6270944;22;20352;-82
2021/10/02 01:58:11;;;;;;;2.13;1.53;;;22.80;54.50;;;;;;6271255;22;20396;-82
2021/10/02 02:00:49;;;;;;;1.87;1.20;;;22.80;54.50;;;;;;6297824;22;20385;-82
2021/10/02 02:03:22;;;;;;;1.60;1.20;;;22.80;54.50;;;;;;6269154;22;20372;-82
2021/10/02 02:05:49;;;;;;;3.27;1.67;;;22.80;54.50;;;;;;6270578;22;20482;-82
2021/10/02 02:08:18;;;;;;;3.03;1.30;;;22.80;54.50;;;;;;6244027;22;20384;-82
2021/10/02 02:10:45;;;;;;;1.37;1.23;;;22.80;54.50;;;;;;6268395;22;20415;-82
2021/10/02 02:13:14;;;;;;;1.53;1.40;;;22.80;54.50;;;;;;6297009;22;20404;-82
2021/10/02 02:15:41;;;;;;;2.23;1.37;;;22.80;54.50;;;;;;6294896;22;20368;-82
2021/10/02 02:18:15;;;;;;;3.90;1.40;;;22.80;54.50;;;;;;6267014;22;20965;-82
2021/10/02 02:20:53;;;;;;;1.80;1.33;;;22.80;54.50;;;;;;6249028;22;20403;-82
2021/10/02 02:23:25;;;;;;;1.70;1.20;;;22.80;54.40;;;;;;6274913;22;20428;-82
2021/10/02 02:26:03;;;;;;;1.80;1.23;;;22.80;54.40;;;;;;6301474;22;20344;-83
2021/10/02 02:28:33;;;;;;;2.33;1.37;;;22.80;54.40;;;;;;6274667;22;20916;-82
2021/10/02 02:31:11;;;;;;;1.73;1.43;;;22.80;54.40;;;;;;6275565;22;20373;-82
2021/10/02 02:33:41;;;;;;;2.13;1.43;;;22.80;54.40;;;;;;6276045;22;20427;-83
2021/10/02 02:36:10;;;;;;;1.33;1.10;;;22.80;54.40;;;;;;6276961;22;20359;-83
2021/10/02 02:38:36;;;;;;;1.80;1.40;;;22.80;54.40;;;;;;6303657;22;20352;-83
2021/10/02 02:41:03;;;;;;;1.97;1.47;;;22.80;54.40;;;;;;6276950;22;20385;-82
2021/10/02 02:43:41;;;;;;;1.13;1.03;;;22.80;54.30;;;;;;6302517;22;20380;-82
2021/10/02 02:46:27;;;;;;;2.20;1.27;;;22.80;54.30;;;;;;6275981;22;20369;-82
2021/10/02 02:49:14;;;;;;;1.60;1.40;;;22.80;54.30;;;;;;6302126;22;20428;-82
2021/10/02 02:52:14;;;;;;;1.80;1.30;;;22.80;54.30;;;;;;6275900;22;20783;-82
2021/10/02 02:55:03;;;;;;;1.60;1.17;;;22.80;54.30;;;;;;6301638;22;20395;-82
2021/10/02 02:57:58;;;;;;;2.03;1.53;;;22.80;54.40;;;;;;6301731;22;20364;-82
2021/10/02 03:00:25;;;;;;;2.10;1.63;;;22.80;54.40;;;;;;6246867;22;20464;-82
2021/10/02 03:03:12;;;;;;;1.60;1.20;;;22.70;54.40;;;;;;6266542;22;20400;-82
2021/10/02 03:05:40;;;;;;;2.93;1.20;;;22.70;54.40;;;;;;6265381;22;20407;-83
2021/10/02 03:08:09;;;;;;;1.50;1.20;;;22.80;54.50;;;;;;6267339;22;20379;-83
2021/10/02 03:10:37;;;;;;;1.80;1.30;;;22.80;54.50;;;;;;6267121;22;20383;-83
2021/10/02 03:13:15;;;;;;;2.03;1.27;;;22.80;54.50;;;;;;6292939;22;20894;-82
2021/10/02 03:15:51;;;;;;;1.33;1.13;;;22.80;54.50;;;;;;6266867;22;20384;-82
2021/10/02 03:18:20;;;;;;;1.60;1.30;;;22.80;54.50;;;;;;6267736;22;20395;-83
2021/10/02 03:20:50;;;;;;;1.47;1.37;;;22.80;54.60;;;;;;6268276;22;20403;-83
2021/10/02 03:23:18;;;;;;;1.33;1.10;;;22.80;54.60;;;;;;6297824;22;20430;-83
2021/10/02 03:25:46;;;;;;;2.60;1.47;;;22.80;54.60;;;;;;6269499;22;20380;-83
2021/10/02 03:28:13;;;;;;;1.33;1.00;;;22.80;54.60;;;;;;6295288;22;20373;-82
2021/10/02 03:30:39;;;;;;;2.07;1.53;;;22.80;54.60;;;;;;6297916;22;20368;-83
2021/10/02 03:33:07;;;;;;;2.13;1.57;;;22.80;54.60;;;;;;6270748;22;20416;-83
2021/10/02 03:35:33;;;;;;;1.70;1.17;;;22.80;54.50;;;;;;6295275;22;20361;-82
2021/10/02 03:37:59;;;;;;;1.67;1.23;;;22.80;54.50;;;;;;6268856;22;20388;-82
2021/10/02 03:40:25;;;;;;;1.47;1.07;;;22.80;54.50;;;;;;6266725;22;20379;-84
2021/10/02 03:42:56;;;;;;;2.13;1.93;;;22.80;54.50;;;;;;6290443;22;20418;-83
2021/10/02 03:45:25;;;;;;;1.77;1.60;;;22.80;54.50;;;;;;6267074;22;20232;-84
2021/10/02 03:47:50;;;;;;;1.73;1.17;;;22.80;54.50;;;;;;6268291;22;20387;-81
2021/10/02 03:50:18;;;;;;;4.20;1.53;;;22.80;54.50;;;;;;6294437;22;20436;-82
2021/10/02 03:52:45;;;;;;;3.93;1.50;;;22.80;54.50;;;;;;6266427;22;20604;-82
2021/10/02 03:55:15;;;;;;;1.60;1.30;;;22.80;54.60;;;;;;6240300;22;20377;-83
2021/10/02 03:57:41;;;;;;;3.70;1.30;;;22.90;54.60;;;;;;6267002;22;20427;-82
2021/10/02 04:00:09;;;;;;;5.73;1.60;;;22.80;54.50;;;;;;6267704;22;20381;-82
2021/10/02 04:02:37;;;;;;;4.90;1.50;;;22.80;54.50;;;;;;6293956;22;20376;-82
2021/10/02 04:05:03;;;;;;;1.93;1.20;;;22.90;55.20;;;;;;6267919;22;20493;-82
2021/10/02 04:07:29;;;;;;;3.27;1.60;;;22.80;54.50;;;;;;6267342;22;20851;-82
2021/10/02 04:09:55;;;;;;;2.10;1.90;;;22.80;54.50;;;;;;6294416;22;20391;-82
2021/10/02 04:12:21;;;;;;;5.73;1.70;;;22.80;54.50;;;;;;6294638;22;20181;-82
2021/10/02 04:14:48;;;;;;;2.43;1.63;;;22.80;54.50;;;;;;6269147;22;20422;-82
2021/10/02 04:17:15;;;;;;;1.40;1.20;;;22.80;54.50;;;;;;6295260;22;20213;-82
2021/10/02 04:19:44;;;;;;;2.30;1.73;;;22.80;54.60;;;;;;6295220;22;20361;-82
2021/10/02 04:22:10;;;;;;;2.30;1.40;;;22.80;55.10;;;;;;6268643;22;20404;-82
2021/10/02 04:24:37;;;;;;;2.40;1.50;;;22.80;54.60;;;;;;6294415;22;20373;-82
2021/10/02 04:27:03;;;;;;;2.90;1.63;;;22.80;54.60;;;;;;6268446;22;20847;-82
2021/10/02 04:29:29;;;;;;;2.47;1.47;;;22.80;54.60;;;;;;6267791;22;20385;-82
2021/10/02 04:31:56;;;;;;;2.90;1.63;;;22.80;54.60;;;;;;6295416;22;20416;-82
2021/10/02 04:34:22;;;;;;;1.70;1.20;;;22.80;54.60;;;;;;6267849;22;20372;-82
2021/10/02 04:36:48;;;;;;;1.43;1.33;;;22.80;54.50;;;;;;6268138;22;20380;-82
2021/10/02 04:39:14;;;;;;;1.87;1.50;;;22.80;54.50;;;;;;6295326;22;20383;-82
2021/10/02 04:41:40;;;;;;;2.37;1.60;;;22.80;54.50;;;;;;6294622;22;20367;-82
2021/10/02 04:44:06;;;;;;;2.50;1.30;;;22.80;54.50;;;;;;6268364;22;20154;-81
2021/10/02 04:46:32;;;;;;;1.33;1.20;;;22.80;54.50;;;;;;6268443;22;20376;-82
2021/10/02 04:48:58;;;;;;;2.00;1.80;;;22.80;54.60;;;;;;6267847;22;20446;-81
2021/10/02 04:51:24;;;;;;;1.50;1.10;;;22.90;54.60;;;;;;6242764;22;20388;-81
2021/10/02 04:53:51;;;;;;;1.60;1.23;;;22.90;54.60;;;;;;6294634;22;20435;-81
2021/10/02 04:56:19;;;;;;;1.97;1.27;;;22.80;54.50;;;;;;6293888;22;20365;-81
2021/10/02 04:58:45;;;;;;;3.73;1.57;;;22.90;54.60;;;;;;6267212;22;20150;-81
2021/10/02 05:01:12;;;;;;;1.70;1.40;;;22.80;55.10;;;;;;6267657;22;20403;-81
2021/10/02 05:03:39;;;;;;;1.73;1.27;;;22.80;54.50;;;;;;6267252;22;20467;-81
2021/10/02 05:06:06;;;;;;;2.17;1.37;;;22.80;54.50;;;;;;6294468;22;20483;-81
2021/10/02 05:08:35;;;;;;;2.20;1.37;;;22.80;54.50;;;;;;6267721;22;20388;-81
2021/10/02 05:11:02;;;;;;;3.97;1.70;;;22.90;54.60;;;;;;6267852;22;20381;-81
2021/10/02 05:13:30;;;;;;;1.67;1.40;;;22.80;54.50;;;;;;6267386;22;20427;-81
2021/10/02 05:15:56;;;;;;;1.87;1.40;;;22.80;54.50;;;;;;6267746;22;20384;-81
2021/10/02 05:18:22;;;;;;;1.93;1.53;;;22.80;54.50;;;;;;6294116;22;20436;-81
2021/10/02 05:20:49;;;;;;;1.73;1.40;;;22.90;54.60;;;;;;6267152;22;20380;-81
2021/10/02 05:23:37;;;;;;;1.80;1.50;;;22.90;54.60;;;;;;6267102;22;20158;-83
2021/10/02 05:26:03;;;;;;;1.73;1.40;;;22.90;54.60;;;;;;6265039;22;20384;-81
2021/10/02 05:28:28;;;;;;;2.30;1.50;;;22.80;54.50;;;;;;6267455;22;20407;-82
2021/10/02 05:31:00;;;;;;;1.33;1.23;;;22.80;54.50;;;;;;6274598;22;20138;-81
2021/10/02 05:33:26;;;;;;;1.53;1.27;;;22.80;54.50;;;;;;6278502;22;20156;-82
2021/10/02 05:35:54;;;;;;;2.30;1.70;;;22.90;54.60;;;;;;6304570;22;20372;-83
2021/10/02 05:38:25;;;;;;;1.50;1.00;;;22.90;54.60;;;;;;6252525;22;20149;-82
2021/10/02 05:41:00;;;;;;;1.47;1.37;;;22.90;54.60;;;;;;6304871;22;20337;-82
2021/10/02 05:43:48;;;;;;;1.60;1.20;;;22.90;54.60;;;;;;6275967;22;20388;-82
2021/10/02 05:46:14;;;;;;;2.90;1.33;;;22.90;54.60;;;;;;6253717;22;20353;-82
2021/10/02 05:48:40;;;;;;;1.50;1.33;;;22.90;54.60;;;;;;6277716;22;20387;-82
2021/10/02 05:51:33;;;;;;;5.20;1.20;;;22.90;54.60;;;;;;6278276;22;20759;-82
2021/10/02 05:54:05;;;;;;;2.57;1.30;;;22.90;54.50;;;;;;6277439;22;20459;-82
2021/10/02 05:56:43;;;;;;;2.07;1.40;;;22.90;54.60;;;;;;6278146;22;20360;-82
2021/10/02 05:59:09;;;;;;;1.50;1.40;;;22.90;54.60;;;;;;6278076;22;20912;-82
2021/10/02 06:01:38;;;;;;;2.07;1.30;;;22.80;55.10;;;;;;6277780;22;20364;-83
2021/10/02 06:04:20;;;;;;;1.60;1.43;;;22.90;54.60;;;;;;6299192;22;20367;-82
2021/10/02 06:07:05;;;;;;;2.40;1.43;;;22.90;54.60;;;;;;6280993;22;20380;-82
2021/10/02 06:09:47;;;;;;;1.87;1.63;;;22.90;54.60;;;;;;6277531;22;20399;-82
2021/10/02 06:12:56;;;;;;;1.47;1.30;;;22.90;54.60;;;;;;6304225;22;20392;-82
2021/10/02 06:18:45;;;;;;;1.80;1.20;;;22.90;54.60;;;;;;6304491;22;20339;-82
2021/10/02 06:21:27;;;;;;;1.77;1.40;;;22.80;54.60;;;;;;6277278;22;20360;-82
2021/10/02 06:24:02;;;;;;;1.37;1.27;;;22.90;54.60;;;;;;6301552;22;20372;-82
2021/10/02 06:26:38;;;;;;;3.83;1.60;;;22.90;54.60;;;;;;6279643;22;20376;-82
2021/10/02 06:29:37;;;;;;;1.70;1.20;;;22.90;54.60;;;;;;6278430;22;20368;-82
2021/10/02 06:32:10;;;;;;;1.83;1.50;;;22.90;54.60;;;;;;6279214;22;20404;-82
2021/10/02 06:34:55;;;;;;;1.40;1.20;;;22.90;54.60;;;;;;6254861;22;20384;-82
2021/10/02 06:37:28;;;;;;;1.87;1.53;;;22.90;54.60;;;;;;6299560;22;20379;-82
2021/10/02 06:40:38;;;;;;;2.97;1.73;;;22.90;54.60;;;;;;6279803;22;20384;-82
2021/10/02 06:43:10;;;;;;;1.50;1.30;;;22.90;54.60;;;;;;6275071;22;20380;-82
2021/10/02 06:45:54;;;;;;;1.90;1.70;;;22.80;54.50;;;;;;6276244;22;20427;-82
2021/10/02 06:48:39;;;;;;;1.43;1.33;;;22.90;54.60;;;;;;6306093;22;20380;-82
2021/10/02 06:51:24;;;;;;;1.73;1.10;;;22.90;54.60;;;;;;6279794;22;20372;-82
2021/10/02 06:53:54;;;;;;;1.90;1.40;;;22.90;54.60;;;;;;6281106;22;20395;-82
2021/10/02 06:56:27;;;;;;;1.67;1.37;;;22.90;54.60;;;;;;6252596;22;20368;-82
2021/10/02 06:59:03;;;;;;;1.97;1.60;;;22.90;54.60;;;;;;6275141;22;20387;-82
2021/10/02 07:01:30;;;;;;;1.30;1.10;;;22.90;54.60;;;;;;6304846;22;20376;-82
2021/10/02 07:03:59;;;;;;;3.10;1.40;;;22.90;54.60;;;;;;6305160;22;20418;-82
2021/10/02 07:09:57;;;;;;;1.40;1.17;;;23.00;54.60;;;;;;6305427;22;20340;-81
2021/10/02 07:12:28;;;;;;;1.20;1.10;;;22.90;54.50;;;;;;6279755;22;20420;-81
2021/10/02 07:15:00;;;;;;;1.83;1.50;;;22.90;54.50;;;;;;6305628;22;20356;-82
2021/10/02 07:17:51;;;;;;;1.30;1.20;;;22.90;54.50;;;;;;6254608;22;20380;-82
2021/10/02 07:20:22;;;;;;;2.27;1.70;;;23.00;54.60;;;;;;6238639;22;20368;-82
2021/10/02 07:22:50;;;;;;;2.00;1.30;;;23.00;54.60;;;;;;6254178;22;20446;-82
2021/10/02 07:25:17;;;;;;;1.50;1.40;;;22.90;54.50;;;;;;6279462;22;20400;-82
2021/10/02 07:27:56;;;;;;;1.90;1.50;;;23.00;54.60;;;;;;6305793;22;20388;-82
2021/10/02 07:30:29;;;;;;;1.53;1.40;;;23.00;54.50;;;;;;6304570;22;20449;-82
2021/10/02 07:33:06;;;;;;;1.90;1.30;;;23.00;54.60;;;;;;6279015;22;20489;-82
2021/10/02 07:35:37;;;;;;;1.50;1.40;;;23.00;54.50;;;;;;6276105;22;20357;-82
2021/10/02 07:38:03;;;;;;;1.30;1.10;;;23.00;54.50;;;;;;6247985;22;20403;-84
2021/10/02 07:40:30;;;;;;;1.83;1.40;;;23.00;54.50;;;;;;6271651;22;20377;-84
2021/10/02 07:42:56;;;;;;;2.00;1.43;;;23.00;54.50;;;;;;6298823;22;20145;-84
2021/10/02 07:45:27;;;;;;;1.97;1.23;;;23.00;54.50;;;;;;6267296;22;20384;-84
2021/10/02 07:47:55;;;;;;;1.63;1.30;;;23.00;54.50;;;;;;6247130;22;20381;-83
2021/10/02 07:50:22;;;;;;;1.80;1.40;;;23.00;54.50;;;;;;6271501;22;20377;-83
2021/10/02 07:52:50;;;;;;;1.30;1.20;;;23.00;54.50;;;;;;6271505;22;20906;-83
2021/10/02 07:55:16;;;;;;;1.60;1.50;;;23.00;54.50;;;;;;6297842;22;20395;-83
2021/10/02 07:57:46;;;;;;;1.77;1.40;;;23.00;54.50;;;;;;6298727;22;20398;-83
2021/10/02 08:00:18;;;;;;;2.03;1.60;;;23.00;54.50;;;;;;6299251;22;20436;-83
2021/10/02 08:02:52;;;;;;;1.50;1.20;;;23.00;54.50;;;;;;6247526;22;20381;-83
2021/10/02 08:05:21;;;;;;;1.47;1.37;;;23.00;54.50;;;;;;6271557;22;20379;-83
2021/10/02 08:07:49;;;;;;;2.40;1.53;;;23.00;54.50;;;;;;6297769;22;20388;-83
2021/10/02 08:10:20;;;;;;;1.90;1.73;;;23.00;54.50;;;;;;6269571;22;20384;-83
2021/10/02 08:12:51;;;;;;;1.90;1.50;;;23.10;54.60;;;;;;6272308;22;20423;-83
2021/10/02 08:15:26;;;;;;;2.43;1.47;;;23.00;54.50;;;;;;6298789;22;20383;-83
2021/10/02 08:17:55;;;;;;;1.50;1.40;;;23.10;54.60;;;;;;6268172;22;20470;-83
2021/10/02 08:20:37;;;;;;;1.80;1.63;;;23.00;54.50;;;;;;6306166;22;20365;-81
2021/10/02 08:23:07;;;;;;;1.73;1.50;;;23.10;54.60;;;;;;6222608;22;20461;-81
2021/10/02 08:25:36;;;;;;;1.60;1.43;;;23.00;54.50;;;;;;6244002;23;20397;-81
2021/10/02 08:28:04;;;;;;;1.50;1.40;;;23.10;54.60;;;;;;6219379;23;20373;-81
2021/10/02 08:30:31;;;;;;;1.40;1.23;;;23.10;54.60;;;;;;6244383;23;20378;-82
2021/10/02 08:33:10;;;;;;;2.00;1.40;;;23.10;54.60;;;;;;6244086;23;20493;-81
2021/10/02 08:36:09;;;;;;;1.30;1.20;;;23.10;54.60;;;;;;6187861;23;20401;-81
2021/10/02 08:42:38;;;;;;;1.53;1.37;;;23.10;54.60;;;;;;6244931;23;20389;-81
2021/10/02 08:49:14;;;;;;;2.00;1.37;;;23.10;54.60;;;;;;6244757;23;20361;-81
2021/10/02 08:55:27;;;;;;;1.90;1.40;;;23.00;54.60;;;;;;6127036;23;20370;-81
2021/10/02 09:01:27;;;;;;;2.47;1.20;;;23.10;54.80;;;;;;6124165;23;20454;-81
2021/10/02 09:04:22;;;;;;;2.00;1.20;;;23.00;54.70;;;;;;6121943;23;20358;-80
2021/10/02 09:10:38;;;;;;;1.93;1.70;;;23.00;54.70;;;;;;6037708;23;20417;-81
2021/10/02 09:13:19;;;;;;;3.50;1.43;;;23.00;54.70;;;;;;6014044;23;20452;-81
2021/10/02 09:16:03;;;;;;;1.90;1.40;;;23.00;54.70;;;;;;6037194;23;20384;-81
2021/10/02 09:18:32;;;;;;;4.00;1.70;;;23.00;54.70;;;;;;6010145;23;20400;-81
2021/10/02 09:21:03;;;;;;;1.93;1.60;;;23.00;54.70;;;;;;6010646;23;20412;-81
2021/10/02 09:26:59;;;;;;;2.93;1.33;;;23.10;54.70;;;;;;6066245;23;20392;-81
2021/10/02 09:33:04;;;;;;;2.33;2.10;;;23.10;54.70;;;;;;6094750;23;20421;-81
2021/10/02 09:35:36;;;;;;;2.70;1.57;;;23.10;54.80;;;;;;6070827;23;20433;-81
2021/10/02 09:38:17;;;;;;;5.47;1.70;;;23.10;54.80;;;;;;6093809;23;20393;-81
2021/10/02 09:41:23;;;;;;;3.23;1.87;;;23.10;54.80;;;;;;6070120;23;20390;-81
2021/10/02 09:54:40;;;;;;;2.93;1.60;;;23.00;54.70;;;;;;6063707;23;20447;-81
2021/10/02 10:00:55;;;;;;;2.87;1.80;;;23.00;54.80;;;;;;6095899;23;20481;-81
2021/10/02 10:07:23;;;;;;;2.10;1.77;;;23.10;54.90;;;;;;6122881;23;20361;-81
2021/10/02 10:13:36;;;;;;;3.23;2.40;;;23.10;54.90;;;;;;5981718;23;20509;-82
2021/10/02 10:16:18;;;;;;;2.20;1.47;;;23.10;54.90;;;;;;5980896;24;20382;-82
2021/10/02 10:25:44;;;;;;;2.83;1.60;;;23.10;54.90;;;;;;6092065;23;20385;-81
2021/10/02 10:35:38;;;;;;;2.70;1.27;;;23.10;54.90;;;;;;5979541;24;20487;-81
2021/10/02 10:38:57;;;;;;;1.90;1.13;;;23.10;54.90;;;;;;5979602;24;20369;-80
2021/10/02 10:41:28;;;;;;;2.17;1.50;;;23.10;54.90;;;;;;5956640;24;20389;-80
2021/10/02 10:44:01;;;;;;;1.80;1.20;;;23.00;54.90;;;;;;5979695;24;20385;-81
2021/10/02 10:46:27;;;;;;;3.10;2.23;;;23.10;54.90;;;;;;5956242;24;20416;-81
2021/10/02 10:48:58;;;;;;;3.40;1.57;;;23.10;54.90;;;;;;5980502;24;20367;-81
2021/10/02 10:51:29;;;;;;;3.20;1.97;;;23.10;54.90;;;;;;5979564;24;20358;-81
2021/10/02 10:54:18;;;;;;;2.70;1.87;;;23.10;54.90;;;;;;5980034;24;20417;-81
2021/10/02 10:56:54;;;;;;;2.83;2.03;;;23.10;54.80;;;;;;5980112;24;20850;-81
2021/10/02 10:59:27;;;;;;;1.60;1.43;;;23.10;54.80;;;;;;5980552;24;20425;-81
2021/10/02 11:01:59;;;;;;;2.73;1.43;;;23.10;54.80;;;;;;5956159;24;20434;-81
2021/10/02 11:04:59;;;;;;;2.20;2.00;;;23.10;54.80;;;;;;6020850;23;20376;-81
2021/10/02 11:07:57;;;;;;;2.80;1.80;;;23.10;54.80;;;;;;6012358;23;20387;-81
2021/10/02 11:11:08;;;;;;;2.23;1.40;;;23.20;54.90;;;;;;6013021;23;20351;-80
2021/10/02 11:17:06;;;;;;;2.90;1.60;;;23.10;54.80;;;;;;5979543;24;20403;-81
2021/10/02 11:19:48;;;;;;;1.40;1.10;;;23.10;54.90;;;;;;5933090;24;20402;-81
2021/10/02 11:23:08;;;;;;;2.17;1.60;;;23.10;54.90;;;;;;5978845;24;20406;-81
2021/10/02 11:29:25;;;;;;;1.60;1.50;;;23.10;54.90;;;;;;5950875;24;20406;-81
2021/10/02 11:32:25;;;;;;;2.23;1.60;;;23.10;55.00;;;;;;5950889;24;20466;-81
2021/10/02 11:35:34;;;;;;;4.30;1.70;;;23.10;55.00;;;;;;5951048;24;20359;-81
2021/10/02 11:38:12;;;;;;;3.13;1.60;;;23.10;55.00;;;;;;5951383;24;20414;-82
2021/10/02 11:41:01;;;;;;;2.00;1.30;;;23.10;55.10;;;;;;5906912;24;20388;-81
2021/10/02 11:43:41;;;;;;;2.20;1.47;;;23.10;55.10;;;;;;5925433;23;20387;-81
2021/10/02 11:46:11;;;;;;;2.37;1.33;;;23.10;55.10;;;;;;6011586;23;20387;-81
2021/10/02 11:49:16;;;;;;;2.77;1.37;;;23.10;55.10;;;;;;6034785;23;20384;-81
2021/10/02 11:52:24;;;;;;;;;;;;;;;;;;;;;
2021/10/02 11:54:56;;;;;;;1.77;1.67;;;23.10;55.00;;;;;;5937986;24;20400;-81
2021/10/02 11:57:40;;;;;;;2.57;1.30;;;23.00;55.00;;;;;;5984580;24;20378;-81
2021/10/02 12:00:15;;;;;;;1.50;1.20;;;23.10;55.10;;;;;;5984338;24;20385;-81
2021/10/02 12:02:45;;;;;;;1.70;1.40;;;23.10;55.10;;;;;;5984941;24;20389;-81
2021/10/02 12:05:17;;;;;;;1.67;1.57;;;23.10;55.10;;;;;;5985082;24;20405;-81
2021/10/02 12:07:46;;;;;;;2.50;1.73;;;23.10;55.10;;;;;;5984225;24;20413;-81
2021/10/02 12:10:20;;;;;;;1.73;1.50;;;23.10;55.10;;;;;;5984511;24;20385;-81
2021/10/02 12:13:14;;;;;;;1.40;1.20;;;23.10;55.10;;;;;;5983913;24;20441;-80
2021/10/02 12:15:46;;;;;;;2.00;1.40;;;23.10;55.10;;;;;;5982237;24;20429;-81
2021/10/02 12:18:13;;;;;;;2.60;1.93;;;23.10;55.10;;;;;;5983394;24;20373;-80
2021/10/02 12:20:41;;;;;;;2.50;1.63;;;23.10;55.10;;;;;;6031815;23;20759;-83
2021/10/02 12:23:17;;;;;;;1.60;1.30;;;23.10;55.10;;;;;;6060727;23;20466;-82
2021/10/02 12:25:42;;;;;;;2.43;1.73;;;23.10;55.10;;;;;;6144681;23;20387;-82
2021/10/02 12:28:21;;;;;;;2.23;1.40;;;23.10;55.70;;;;;;6193832;23;20382;-82
2021/10/02 12:30:53;;;;;;;2.30;1.57;;;23.10;55.10;;;;;;6231074;23;20239;-82
2021/10/02 12:33:22;;;;;;;1.70;1.37;;;23.10;55.10;;;;;;6289291;22;20501;-82
2021/10/02 12:35:48;;;;;;;2.57;1.53;;;23.10;55.20;;;;;;6266001;22;20455;-83
2021/10/02 12:38:14;;;;;;;1.70;1.40;;;23.10;55.10;;;;;;6265456;22;20392;-84
2021/10/02 12:40:52;;;;;;;1.63;1.50;;;23.10;55.10;;;;;;6268607;22;20385;-83
2021/10/02 12:47:22;;;;;;;1.60;1.30;;;23.10;55.10;;;;;;6141323;23;20376;-83
2021/10/02 12:49:51;;;;;;;1.77;1.67;;;23.10;55.20;;;;;;6119048;23;20452;-83
2021/10/02 12:52:18;;;;;;;1.80;1.50;;;23.00;55.20;;;;;;6139970;23;20437;-83
2021/10/02 12:55:06;;;;;;;1.90;1.57;;;23.00;55.20;;;;;;6117548;23;20389;-82
2021/10/02 12:57:35;;;;;;;1.23;1.13;;;23.00;55.20;;;;;;6117396;23;20468;-83
2021/10/02 13:00:10;;;;;;;1.40;1.30;;;23.00;55.30;;;;;;6113846;23;20393;-84
2021/10/02 13:02:51;;;;;;;1.63;1.30;;;23.00;55.20;;;;;;6114829;23;20869;-83
2021/10/02 13:05:25;;;;;;;1.87;1.40;;;23.00;55.20;;;;;;6115061;23;20381;-84
2021/10/02 13:07:54;;;;;;;1.90;1.50;;;23.00;55.30;;;;;;6114384;23;20446;-83
2021/10/02 13:10:21;;;;;;;1.60;1.40;;;23.00;55.30;;;;;;6113176;23;20389;-83
2021/10/02 13:12:55;;;;;;;1.83;1.30;;;23.00;55.30;;;;;;6114143;23;20501;-83
2021/10/02 13:15:29;;;;;;;2.03;1.40;;;23.00;55.20;;;;;;6113563;23;20388;-81
2021/10/02 13:18:16;;;;;;;2.90;1.63;;;23.00;55.30;;;;;;6139547;23;20385;-82
2021/10/02 13:21:03;;;;;;;3.17;1.83;;;23.00;55.30;;;;;;6114687;23;20456;-82
2021/10/02 13:23:36;;;;;;;2.27;1.70;;;23.00;55.30;;;;;;6233920;22;20376;-82
2021/10/02 13:26:09;;;;;;;1.63;1.40;;;23.00;55.60;;;;;;6264437;22;20405;-82
2021/10/02 13:28:44;;;;;;;1.60;1.33;;;23.00;55.40;;;;;;6291299;22;20373;-83
2021/10/02 13:31:36;;;;;;;;;;;;;;;;;;;;;
2021/10/02 13:37:25;;;;;;;2.07;1.50;;;23.00;55.40;;;;;;6284959;22;20387;-82
2021/10/02 13:39:54;;;;;;;1.53;1.30;;;23.00;55.50;;;;;;6267114;22;20388;-82
2021/10/02 13:42:30;;;;;;;1.60;1.30;;;23.00;55.50;;;;;;6265864;22;20395;-82
2021/10/02 13:44:57;;;;;;;1.43;1.33;;;23.00;55.50;;;;;;6266277;22;20869;-82
2021/10/02 13:47:25;;;;;;;2.30;1.60;;;22.90;55.40;;;;;;6268426;22;20380;-82
2021/10/02 13:49:52;;;;;;;1.60;1.40;;;23.00;55.40;;;;;;6266415;22;20388;-83
2021/10/02 13:52:24;;;;;;;2.13;1.53;;;23.00;55.40;;;;;;6264365;22;20424;-82
2021/10/02 13:54:51;;;;;;;1.60;1.40;;;23.00;55.40;;;;;;6268784;22;20384;-83
2021/10/02 13:57:16;;;;;;;1.73;1.40;;;23.00;55.40;;;;;;6265948;22;20478;-82
2021/10/02 13:59:42;;;;;;;1.97;1.77;;;23.00;55.50;;;;;;6264885;22;20158;-82
2021/10/02 14:02:14;;;;;;;1.90;1.70;;;23.00;55.50;;;;;;6264588;22;20236;-82
2021/10/02 14:04:40;;;;;;;1.67;1.53;;;23.00;55.40;;;;;;6266315;22;20392;-83
2021/10/02 14:07:09;;;;;;;1.40;1.17;;;23.00;55.50;;;;;;6292142;22;20411;-83
2021/10/02 14:09:38;;;;;;;1.70;1.47;;;23.00;55.50;;;;;;6265844;22;20149;-83
2021/10/02 14:12:04;;;;;;;2.00;1.40;;;23.00;55.50;;;;;;6265688;22;20392;-83
2021/10/02 14:14:32;;;;;;;2.20;1.80;;;23.00;55.50;;;;;;6265197;22;20380;-83
2021/10/02 14:17:01;;;;;;;1.53;1.40;;;23.00;55.50;;;;;;6291903;22;20400;-83
2021/10/02 14:19:30;;;;;;;1.90;1.70;;;23.00;55.50;;;;;;6264719;22;20388;-82
2021/10/02 14:21:55;;;;;;;1.70;1.40;;;22.90;55.40;;;;;;6292179;22;20383;-83
2021/10/02 14:24:27;;;;;;;1.67;1.37;;;22.90;55.40;;;;;;6291494;22;20447;-83
2021/10/02 14:26:56;;;;;;;1.40;1.20;;;23.00;55.50;;;;;;6236675;22;20154;-83
2021/10/02 14:29:22;;;;;;;3.03;1.67;;;22.90;55.40;;;;;;6292757;22;20376;-83
2021/10/02 14:31:47;;;;;;;2.60;1.70;;;22.90;55.40;;;;;;6266038;22;20396;-83
2021/10/02 14:34:15;;;;;;;1.47;1.27;;;23.00;55.50;;;;;;6265608;22;20703;-83
2021/10/02 14:36:42;;;;;;;1.40;1.30;;;22.90;55.40;;;;;;6266545;22;20173;-83
2021/10/02 14:39:12;;;;;;;1.73;1.30;;;22.90;55.50;;;;;;6217335;22;20376;-84
2021/10/02 14:41:38;;;;;;;1.63;1.43;;;22.90;55.40;;;;;;6294936;22;20392;-84
2021/10/02 14:44:07;;;;;;;1.83;1.60;;;22.90;55.40;;;;;;6268302;22;20388;-83
2021/10/02 14:46:36;;;;;;;1.37;1.27;;;22.90;55.40;;;;;;6295892;22;20156;-83
2021/10/02 14:49:04;;;;;;;1.77;1.20;;;22.90;55.40;;;;;;6269295;22;20384;-84
2021/10/02 14:51:33;;;;;;;1.60;1.43;;;22.90;55.40;;;;;;6296232;22;20394;-83
2021/10/02 14:54:02;;;;;;;2.10;1.33;;;22.90;55.40;;;;;;6270045;22;20424;-83
2021/10/02 14:56:31;;;;;;;1.60;1.37;;;22.90;55.40;;;;;;6267888;22;20380;-83
2021/10/02 14:59:02;;;;;;;1.53;1.43;;;22.90;55.40;;;;;;6267858;22;20372;-83
2021/10/02 15:01:31;;;;;;;1.53;1.43;;;22.90;55.40;;;;;;6267174;22;20384;-83
2021/10/02 15:04:03;;;;;;;2.03;1.40;;;22.90;55.40;;;;;;6294369;22;20376;-84
2021/10/02 15:06:33;;;;;;;1.83;1.37;;;22.90;55.40;;;;;;6267495;22;20388;-83
2021/10/02 15:08:59;;;;;;;2.90;1.30;;;22.90;55.40;;;;;;6267352;22;20443;-83
2021/10/02 15:11:33;;;;;;;1.40;1.30;;;22.90;55.40;;;;;;6267149;22;20384;-84
2021/10/02 15:14:00;;;;;;;1.70;1.30;;;22.90;55.40;;;;;;6267376;22;20427;-83
2021/10/02 15:16:25;;;;;;;2.03;1.20;;;22.90;55.40;;;;;;6266512;22;20383;-83
2021/10/02 15:25:36;;;;;;;2.00;1.57;;;22.90;55.40;;;;;;6294231;22;20408;-82
2021/10/02 15:28:29;;;;;;;1.73;1.30;;;22.80;55.40;;;;;;6275373;22;20384;-82
2021/10/02 15:31:17;;;;;;;1.63;1.53;;;22.80;55.30;;;;;;6275008;22;20388;-81
2021/10/02 15:33:52;;;;;;;2.33;1.60;;;22.80;55.40;;;;;;6252104;22;20469;-81
2021/10/02 15:36:34;;;;;;;1.80;1.50;;;22.80;55.40;;;;;;6276988;22;20414;-82
2021/10/02 15:39:07;;;;;;;1.60;1.40;;;22.80;55.40;;;;;;6275969;22;20452;-81
2021/10/02 15:41:45;;;;;;;1.60;1.40;;;22.80;55.40;;;;;;6258085;22;20390;-82
2021/10/02 15:51:09;;;;;;;2.33;1.60;;;22.80;55.40;;;;;;6306374;22;20347;-82
2021/10/02 15:53:42;;;;;;;1.50;1.40;;;22.70;55.50;;;;;;6133760;23;20427;-82
2021/10/02 15:56:35;;;;;;;1.37;1.17;;;22.70;55.50;;;;;;6172553;23;20380;-82